Time;durP1;ratioP1;P1;durP2;ratioP2;P2;SDS_P1;SDS_P2;PMS_P1;PMS_P2;Temp;Humidity;BMP_temperature;BMP_pressure;BME280_temperature;BME280_humidity;BME280_pressure;Samples;Min_cycle;Max_cycle;Signal;HPM_P1;HPM_P2
2024/01/27 00:01:36;;;;;;;97.15;90.35;;;8.10;99.90;;;;;;5051005;28;20171;-73
2024/01/27 00:04:02;;;;;;;104.32;97.22;;;8.10;99.90;;;;;;5013684;28;20041;-74
2024/01/27 00:06:28;;;;;;;97.60;90.65;;;8.10;99.90;;;;;;5042617;28;20048;-73
2024/01/27 00:08:54;;;;;;;95.25;88.47;;;8.10;99.90;;;;;;5051301;28;20124;-73
2024/01/27 00:11:23;;;;;;;85.10;79.40;;;8.10;99.90;;;;;;5051355;28;20045;-73
2024/01/27 00:13:49;;;;;;;94.57;87.82;;;7.90;99.90;;;;;;5050908;28;20040;-73
2024/01/27 00:16:15;;;;;;;90.17;83.67;;;7.90;99.90;;;;;;5042005;28;20041;-73
2024/01/27 00:18:41;;;;;;;95.68;88.78;;;7.90;99.90;;;;;;5043135;28;20036;-73
2024/01/27 00:21:07;;;;;;;104.05;97.07;;;8.00;99.90;;;;;;5051196;28;20061;-74
2024/01/27 00:23:34;;;;;;;88.95;83.00;;;7.80;99.90;;;;;;5051187;28;20037;-73
2024/01/27 00:26:01;;;;;;;88.30;82.27;;;7.80;99.90;;;;;;5050431;28;20044;-73
2024/01/27 00:28:27;;;;;;;83.87;77.83;;;7.80;99.90;;;;;;5017597;28;20021;-73
2024/01/27 00:30:54;;;;;;;91.50;84.67;;;7.80;99.90;;;;;;5044689;28;20396;-73
2024/01/27 00:33:20;;;;;;;95.00;87.77;;;7.90;99.90;;;;;;5038528;28;20040;-73
2024/01/27 00:35:46;;;;;;;94.60;88.27;;;7.80;99.90;;;;;;5051326;28;20537;-73
2024/01/27 00:38:12;;;;;;;86.07;79.63;;;7.80;99.90;;;;;;5051027;28;20036;-73
2024/01/27 00:40:38;;;;;;;85.57;79.13;;;7.80;99.90;;;;;;5051228;28;20037;-73
2024/01/27 00:43:04;;;;;;;128.52;119.68;;;7.80;99.90;;;;;;5051395;28;20384;-74
2024/01/27 00:45:30;;;;;;;89.87;84.07;;;7.80;99.90;;;;;;5050658;28;20530;-74
2024/01/27 00:47:57;;;;;;;81.50;76.27;;;7.70;99.90;;;;;;5051261;28;20021;-73
2024/01/27 00:50:23;;;;;;;77.23;71.73;;;7.60;99.90;;;;;;5049941;28;20029;-74
2024/01/27 00:52:49;;;;;;;75.70;70.40;;;7.40;99.90;;;;;;5040153;28;20029;-74
2024/01/27 00:55:15;;;;;;;76.17;70.90;;;7.30;99.90;;;;;;5053936;28;20402;-74
2024/01/27 00:57:41;;;;;;;68.87;64.10;;;7.40;99.90;;;;;;5017422;28;20392;-73
2024/01/27 01:00:08;;;;;;;71.77;67.10;;;7.40;99.90;;;;;;5033909;28;20064;-73
2024/01/27 01:02:34;;;;;;;73.70;68.43;;;7.30;99.90;;;;;;5017022;28;20045;-73
2024/01/27 01:05:01;;;;;;;73.77;68.87;;;7.20;99.90;;;;;;5054891;28;20468;-74
2024/01/27 01:07:27;;;;;;;71.53;66.70;;;7.20;99.90;;;;;;5035190;28;20033;-74
2024/01/27 01:09:53;;;;;;;69.83;65.20;;;7.30;99.90;;;;;;5034743;28;20399;-74
2024/01/27 01:12:19;;;;;;;71.93;66.70;;;7.40;99.90;;;;;;5034657;28;20037;-73
2024/01/27 01:14:45;;;;;;;68.97;63.95;;;7.60;99.90;;;;;;5052493;28;20060;-73
2024/01/27 01:17:12;;;;;;;76.13;70.82;;;7.60;99.90;;;;;;5053771;28;20087;-74
2024/01/27 01:19:38;;;;;;;75.65;70.72;;;7.70;99.90;;;;;;5054500;28;20388;-73
2024/01/27 01:22:04;;;;;;;73.20;68.00;;;7.70;99.90;;;;;;5037990;28;20060;-74
2024/01/27 01:24:31;;;;;;;77.33;72.00;;;7.70;99.90;;;;;;5049928;28;20480;-73
2024/01/27 01:26:57;;;;;;;78.18;73.10;;;7.60;99.90;;;;;;5053351;28;20056;-73
2024/01/27 01:29:23;;;;;;;79.10;74.00;;;7.50;99.90;;;;;;5054525;28;20032;-73
2024/01/27 01:31:49;;;;;;;80.60;74.93;;;7.40;99.90;;;;;;5053193;28;20483;-73
2024/01/27 01:34:15;;;;;;;77.90;72.40;;;7.40;99.90;;;;;;5036249;28;20041;-73
2024/01/27 01:36:42;;;;;;;73.53;68.72;;;7.30;99.90;;;;;;5040967;28;20056;-74
2024/01/27 01:39:09;;;;;;;72.60;67.53;;;7.10;99.90;;;;;;5016036;28;20046;-73
2024/01/27 01:41:36;;;;;;;69.82;64.65;;;7.20;99.90;;;;;;5033944;28;20049;-73
2024/01/27 01:44:02;;;;;;;65.27;60.27;;;7.30;99.90;;;;;;5045245;28;20029;-74
2024/01/27 01:46:28;;;;;;;65.10;60.50;;;7.10;99.90;;;;;;5035605;28;20415;-74
2024/01/27 01:48:54;;;;;;;67.97;62.90;;;7.00;99.90;;;;;;5054069;28;20017;-73
2024/01/27 01:51:20;;;;;;;67.23;62.20;;;7.10;99.90;;;;;;5052938;28;20049;-73
2024/01/27 01:53:48;;;;;;;80.80;75.13;;;7.20;99.90;;;;;;5035911;28;20032;-73
2024/01/27 01:56:15;;;;;;;77.73;72.47;;;7.30;99.90;;;;;;5035829;28;20040;-73
2024/01/27 01:58:41;;;;;;;73.63;68.70;;;7.20;99.90;;;;;;5053905;28;20037;-74
2024/01/27 02:01:07;;;;;;;73.07;68.17;;;7.00;99.90;;;;;;5010358;28;20094;-73
2024/01/27 02:03:34;;;;;;;91.50;85.77;;;6.80;99.90;;;;;;5039664;28;20378;-73
2024/01/27 02:06:00;;;;;;;82.67;77.27;;;6.70;99.90;;;;;;5053037;28;20040;-73
2024/01/27 02:08:26;;;;;;;99.27;93.13;;;6.90;99.90;;;;;;5053245;28;20494;-74
2024/01/27 02:10:52;;;;;;;96.50;90.23;;;6.90;99.90;;;;;;5053146;28;20048;-73
2024/01/27 02:13:22;;;;;;;95.73;89.03;;;6.90;99.90;;;;;;5053597;28;20494;-73
2024/01/27 02:15:49;;;;;;;115.93;108.72;;;6.90;99.90;;;;;;5047087;28;20492;-74
2024/01/27 02:18:15;;;;;;;129.77;121.97;;;7.00;99.90;;;;;;5041125;28;20032;-73
2024/01/27 02:20:41;;;;;;;120.63;113.67;;;7.10;99.90;;;;;;5052245;28;20053;-74
2024/01/27 02:23:07;;;;;;;101.60;95.23;;;7.00;99.90;;;;;;5053202;28;20033;-73
2024/01/27 02:25:34;;;;;;;79.67;74.00;;;7.10;99.90;;;;;;5034716;28;20033;-73
2024/01/27 02:28:01;;;;;;;119.47;112.37;;;7.10;99.90;;;;;;5035414;28;20037;-74
2024/01/27 02:30:27;;;;;;;113.93;106.83;;;7.10;99.90;;;;;;5051614;28;20806;-73
2024/01/27 02:32:53;;;;;;;99.50;93.00;;;7.10;99.90;;;;;;5053166;28;20028;-73
2024/01/27 02:35:19;;;;;;;118.83;110.97;;;7.10;99.90;;;;;;5034263;28;20388;-73
2024/01/27 02:37:45;;;;;;;116.18;108.93;;;7.00;99.90;;;;;;5053141;28;20032;-73
2024/01/27 02:40:11;;;;;;;118.77;111.80;;;6.80;99.90;;;;;;5052842;28;20407;-73
2024/01/27 02:42:37;;;;;;;105.80;99.47;;;6.70;99.90;;;;;;5052253;28;20045;-73
2024/01/27 02:45:04;;;;;;;95.80;89.73;;;6.70;99.90;;;;;;5052347;28;20037;-73
2024/01/27 02:47:30;;;;;;;68.33;63.13;;;6.80;99.90;;;;;;5052597;28;20044;-72
2024/01/27 02:49:56;;;;;;;87.80;81.53;;;6.80;99.90;;;;;;5052671;28;20021;-73
2024/01/27 02:52:22;;;;;;;51.80;48.03;;;6.80;99.90;;;;;;5052434;28;20467;-73
2024/01/27 02:54:48;;;;;;;62.73;58.23;;;6.80;99.90;;;;;;5052712;28;20032;-73
2024/01/27 02:57:16;;;;;;;64.07;59.33;;;6.80;99.90;;;;;;5052284;28;20033;-73
2024/01/27 02:59:45;;;;;;;53.63;49.07;;;6.80;99.90;;;;;;5052266;28;20029;-73
2024/01/27 03:02:11;;;;;;;58.53;53.63;;;6.70;99.90;;;;;;5029799;28;20058;-73
2024/01/27 03:04:38;;;;;;;57.03;52.53;;;6.50;99.90;;;;;;5043401;28;20519;-73
2024/01/27 03:07:04;;;;;;;45.90;42.13;;;6.50;99.90;;;;;;5047012;28;20033;-73
2024/01/27 03:09:31;;;;;;;50.50;46.50;;;6.40;99.90;;;;;;5034193;28;20037;-73
2024/01/27 03:11:58;;;;;;;49.13;45.57;;;6.40;99.90;;;;;;5050154;28;20052;-73
2024/01/27 03:14:24;;;;;;;46.97;43.27;;;6.20;99.90;;;;;;5047432;28;20032;-73
2024/01/27 03:16:50;;;;;;;45.17;41.67;;;6.20;99.90;;;;;;5050207;28;20033;-73
2024/01/27 03:19:16;;;;;;;49.73;45.83;;;6.30;99.90;;;;;;5050603;28;20025;-73
2024/01/27 03:21:42;;;;;;;47.47;43.97;;;6.40;99.90;;;;;;5036392;28;20041;-73
2024/01/27 03:24:08;;;;;;;54.80;50.87;;;6.40;99.90;;;;;;5031887;28;20037;-73
2024/01/27 03:26:34;;;;;;;46.70;43.40;;;6.20;99.90;;;;;;5038675;28;20491;-73
2024/01/27 03:29:00;;;;;;;51.40;47.53;;;6.20;99.90;;;;;;5030862;28;20029;-73
2024/01/27 03:31:33;;;;;;;56.33;52.30;;;6.20;99.90;;;;;;5030078;28;20480;-73
2024/01/27 03:34:00;;;;;;;58.93;54.87;;;6.20;99.90;;;;;;5038913;28;20044;-73
2024/01/27 03:36:26;;;;;;;53.67;49.73;;;6.20;99.90;;;;;;5050815;28;20029;-73
2024/01/27 03:38:52;;;;;;;60.47;56.13;;;6.30;99.90;;;;;;5052026;28;20040;-73
2024/01/27 03:41:18;;;;;;;51.03;47.13;;;6.30;99.90;;;;;;5051655;28;20356;-73
2024/01/27 03:43:45;;;;;;;49.90;46.53;;;6.30;99.90;;;;;;5051945;28;20029;-73
2024/01/27 03:46:11;;;;;;;60.80;56.70;;;6.30;99.90;;;;;;5050984;28;20080;-73
2024/01/27 03:48:37;;;;;;;54.40;50.33;;;6.20;99.90;;;;;;5052065;28;20017;-73
2024/01/27 03:51:03;;;;;;;58.53;54.37;;;6.30;99.90;;;;;;5050860;28;20033;-73
2024/01/27 03:53:29;;;;;;;63.57;58.37;;;6.40;99.90;;;;;;5051780;28;20032;-73
2024/01/27 03:55:58;;;;;;;52.63;48.67;;;6.50;99.90;;;;;;5045133;28;20380;-73
2024/01/27 03:58:24;;;;;;;54.83;50.70;;;6.40;99.90;;;;;;5031284;28;20113;-73
2024/01/27 04:00:51;;;;;;;49.67;45.90;;;6.30;99.90;;;;;;5030879;28;20033;-72
2024/01/27 04:03:17;;;;;;;55.87;51.90;;;6.20;99.90;;;;;;5032778;28;20053;-73
2024/01/27 04:05:43;;;;;;;43.53;39.90;;;6.30;99.90;;;;;;5046743;28;20030;-73
2024/01/27 04:08:09;;;;;;;54.87;51.37;;;6.20;99.90;;;;;;5031145;28;20468;-73
2024/01/27 04:10:36;;;;;;;55.10;51.17;;;6.30;99.90;;;;;;5031480;28;20049;-73
2024/01/27 04:13:03;;;;;;;43.83;40.00;;;6.10;99.90;;;;;;5031960;28;20029;-73
2024/01/27 04:15:29;;;;;;;35.37;32.73;;;6.00;99.90;;;;;;5047450;28;20045;-73
2024/01/27 04:17:55;;;;;;;40.57;37.40;;;5.80;99.90;;;;;;5019215;28;20040;-74
2024/01/27 04:20:21;;;;;;;54.77;50.77;;;5.80;99.90;;;;;;5051461;28;20033;-73
2024/01/27 04:22:48;;;;;;;48.50;44.87;;;5.80;99.90;;;;;;5051645;28;20376;-73
2024/01/27 04:25:14;;;;;;;48.60;44.97;;;6.00;99.90;;;;;;5051944;28;20032;-74
2024/01/27 04:27:40;;;;;;;42.27;39.03;;;6.00;99.90;;;;;;5055559;28;20392;-73
2024/01/27 04:30:07;;;;;;;38.73;35.43;;;5.90;99.90;;;;;;5054720;28;20470;-73
2024/01/27 04:32:33;;;;;;;42.30;38.80;;;5.70;99.90;;;;;;5017928;28;20057;-73
2024/01/27 04:34:59;;;;;;;49.07;45.60;;;5.70;99.90;;;;;;5050794;28;20048;-73
2024/01/27 04:37:25;;;;;;;42.07;38.50;;;5.50;99.90;;;;;;5050338;28;20049;-73
2024/01/27 04:39:51;;;;;;;41.20;37.80;;;5.40;99.90;;;;;;5055088;28;20037;-73
2024/01/27 04:42:17;;;;;;;46.63;42.93;;;5.50;99.90;;;;;;5054793;28;20483;-73
2024/01/27 04:44:43;;;;;;;39.70;36.57;;;5.60;99.90;;;;;;5054188;28;20033;-73
2024/01/27 04:47:09;;;;;;;48.43;44.87;;;5.60;99.90;;;;;;5054217;28;20484;-73
2024/01/27 04:49:35;;;;;;;65.00;60.13;;;5.60;99.90;;;;;;5055219;28;20029;-73
2024/01/27 04:52:02;;;;;;;115.80;108.93;;;5.60;99.90;;;;;;5049012;28;20033;-73
2024/01/27 04:54:28;;;;;;;120.30;113.03;;;5.50;99.90;;;;;;5052790;28;20025;-74
2024/01/27 04:56:54;;;;;;;116.33;109.30;;;5.40;99.90;;;;;;5054581;28;20037;-73
2024/01/27 04:59:20;;;;;;;115.07;107.97;;;5.30;99.90;;;;;;5054712;28;20032;-73
2024/01/27 05:01:46;;;;;;;105.93;99.90;;;5.40;99.90;;;;;;5049910;28;20131;-73
2024/01/27 05:04:12;;;;;;;143.40;135.30;;;5.50;99.90;;;;;;5054828;28;20047;-73
2024/01/27 05:06:43;;;;;;;150.83;142.47;;;5.50;99.90;;;;;;5054633;28;20043;-73
2024/01/27 05:09:09;;;;;;;205.23;194.13;;;5.60;99.90;;;;;;5054148;28;20041;-73
2024/01/27 05:11:35;;;;;;;125.50;117.60;;;5.50;99.90;;;;;;5054338;28;20029;-73
2024/01/27 05:14:01;;;;;;;159.73;150.43;;;5.30;99.90;;;;;;5054315;28;20029;-73
2024/01/27 05:16:27;;;;;;;157.03;148.53;;;5.30;99.90;;;;;;5053855;28;20044;-73
2024/01/27 05:18:54;;;;;;;142.30;134.03;;;5.30;99.90;;;;;;5054533;28;20040;-72
2024/01/27 05:21:20;;;;;;;189.10;178.83;;;5.50;99.90;;;;;;5044563;28;20029;-73
2024/01/27 05:23:46;;;;;;;171.07;161.47;;;5.60;99.90;;;;;;5037037;28;20034;-73
2024/01/27 05:26:12;;;;;;;123.10;115.80;;;5.60;99.90;;;;;;5053949;28;20494;-73
2024/01/27 05:28:39;;;;;;;181.10;170.77;;;5.50;99.90;;;;;;5054069;28;20028;-73
2024/01/27 05:31:08;;;;;;;168.20;158.20;;;5.40;99.90;;;;;;5035271;28;20036;-73
2024/01/27 05:33:35;;;;;;;168.47;159.13;;;5.40;99.90;;;;;;5052700;28;20048;-72
2024/01/27 05:36:01;;;;;;;141.63;133.40;;;5.50;99.90;;;;;;5049906;28;20044;-73
2024/01/27 05:38:29;;;;;;;157.50;148.40;;;5.70;99.90;;;;;;5035489;28;20029;-73
2024/01/27 05:40:56;;;;;;;70.90;66.13;;;5.70;99.90;;;;;;5053086;28;20056;-73
2024/01/27 05:43:22;;;;;;;51.30;47.67;;;5.80;99.90;;;;;;5053912;28;20041;-73
2024/01/27 05:45:49;;;;;;;177.97;168.03;;;5.80;99.90;;;;;;5046765;28;20495;-73
2024/01/27 05:48:15;;;;;;;101.10;94.97;;;5.80;99.90;;;;;;5033712;28;20037;-73
2024/01/27 05:50:42;;;;;;;172.57;163.20;;;5.70;99.90;;;;;;5033470;28;20391;-73
2024/01/27 05:53:08;;;;;;;45.97;42.60;;;5.70;99.90;;;;;;5022142;28;20044;-74
2024/01/27 05:55:34;;;;;;;77.77;72.97;;;5.70;99.90;;;;;;5052226;28;20468;-73
2024/01/27 05:58:00;;;;;;;71.13;66.63;;;5.80;99.90;;;;;;5052302;28;20036;-73
2024/01/27 06:00:26;;;;;;;45.20;41.43;;;5.80;99.90;;;;;;5052942;28;20036;-73
2024/01/27 06:02:52;;;;;;;45.10;41.60;;;5.90;99.90;;;;;;5053051;28;20415;-73
2024/01/27 06:05:19;;;;;;;69.23;64.40;;;5.90;99.90;;;;;;5053291;28;20037;-73
2024/01/27 06:07:46;;;;;;;69.37;64.20;;;6.00;99.90;;;;;;5053133;28;20063;-73
2024/01/27 06:10:12;;;;;;;124.37;116.93;;;6.00;99.90;;;;;;5052490;28;20053;-72
2024/01/27 06:12:39;;;;;;;208.53;196.67;;;5.90;99.90;;;;;;5052358;28;20045;-72
2024/01/27 06:15:06;;;;;;;159.37;150.70;;;5.70;99.90;;;;;;5052877;28;20029;-74
2024/01/27 06:17:32;;;;;;;53.63;49.77;;;5.80;99.90;;;;;;5052170;28;20067;-72
2024/01/27 06:19:58;;;;;;;63.90;59.77;;;5.80;99.90;;;;;;5053528;28;20029;-73
2024/01/27 06:22:24;;;;;;;57.50;53.73;;;5.80;99.90;;;;;;5034505;28;20408;-72
2024/01/27 06:24:50;;;;;;;46.83;43.20;;;5.80;99.90;;;;;;5044117;28;20037;-73
2024/01/27 06:27:16;;;;;;;166.37;157.40;;;5.60;99.90;;;;;;5035029;28;20045;-73
2024/01/27 06:29:43;;;;;;;203.63;192.10;;;5.60;99.90;;;;;;5033397;28;20034;-72
2024/01/27 06:32:09;;;;;;;200.70;189.73;;;5.30;99.90;;;;;;5032090;28;20033;-73
2024/01/27 06:34:36;;;;;;;209.93;198.30;;;5.20;99.90;;;;;;5038952;28;20387;-72
2024/01/27 06:37:02;;;;;;;182.33;172.63;;;5.10;99.90;;;;;;5048937;28;20029;-73
2024/01/27 06:39:29;;;;;;;55.77;52.17;;;5.00;99.90;;;;;;5051794;28;20247;-73
2024/01/27 06:41:55;;;;;;;54.80;49.70;;;4.90;99.90;;;;;;5052089;28;20045;-73
2024/01/27 06:44:22;;;;;;;90.13;84.40;;;5.10;99.90;;;;;;5053128;28;20029;-72
2024/01/27 06:46:49;;;;;;;85.27;79.77;;;5.10;99.90;;;;;;5051360;28;20044;-72
2024/01/27 06:49:16;;;;;;;68.13;63.63;;;5.20;99.90;;;;;;5051833;28;20045;-72
2024/01/27 06:51:43;;;;;;;151.63;142.83;;;5.10;99.90;;;;;;5052345;28;20036;-72
2024/01/27 06:54:09;;;;;;;116.83;110.30;;;4.90;99.90;;;;;;5051815;28;20029;-71
2024/01/27 06:56:36;;;;;;;141.17;133.13;;;4.90;99.90;;;;;;5051678;28;20506;-72
2024/01/27 06:59:02;;;;;;;63.93;59.90;;;5.00;99.90;;;;;;5051924;28;20025;-72
2024/01/27 07:01:28;;;;;;;116.90;110.20;;;5.10;99.90;;;;;;5051917;28;20033;-72
2024/01/27 07:03:54;;;;;;;45.47;42.03;;;5.20;99.90;;;;;;5052107;28;20041;-72
2024/01/27 07:06:21;;;;;;;45.37;42.10;;;5.20;99.90;;;;;;5043149;28;20036;-71
2024/01/27 07:08:47;;;;;;;60.00;56.17;;;5.20;99.90;;;;;;5047372;28;20029;-72
2024/01/27 07:11:13;;;;;;;173.90;163.87;;;5.30;99.90;;;;;;5045109;28;20025;-72
2024/01/27 07:13:40;;;;;;;197.87;187.27;;;5.10;99.90;;;;;;5051441;28;20059;-72
2024/01/27 07:16:07;;;;;;;198.07;186.73;;;5.10;99.90;;;;;;5032832;28;20036;-72
2024/01/27 07:18:34;;;;;;;65.90;61.97;;;5.10;99.90;;;;;;5051554;28;20029;-72
2024/01/27 07:21:01;;;;;;;153.90;145.03;;;5.10;99.90;;;;;;5051588;28;20037;-72
2024/01/27 07:23:28;;;;;;;178.33;168.43;;;5.10;99.90;;;;;;5048006;28;20063;-72
2024/01/27 07:25:54;;;;;;;42.60;39.87;;;5.00;99.90;;;;;;5051209;28;20040;-74
2024/01/27 07:28:20;;;;;;;57.27;52.83;;;5.10;99.90;;;;;;5051540;28;20036;-76
2024/01/27 07:30:46;;;;;;;49.03;44.90;;;5.50;99.90;;;;;;5050668;28;20033;-68
2024/01/27 07:33:12;;;;;;;110.13;103.00;;;5.70;99.90;;;;;;5050638;28;20044;-71
2024/01/27 07:35:38;;;;;;;104.40;98.27;;;5.50;99.90;;;;;;5051168;28;20044;-72
2024/01/27 07:38:04;;;;;;;47.93;44.17;;;4.90;99.90;;;;;;5034181;28;20051;-72
2024/01/27 07:40:31;;;;;;;73.07;68.17;;;4.60;99.90;;;;;;5052137;28;20036;-72
2024/01/27 07:42:57;;;;;;;44.97;41.33;;;4.50;99.90;;;;;;5034036;28;20072;-72
2024/01/27 07:45:23;;;;;;;39.97;37.20;;;4.30;99.90;;;;;;5051674;28;20048;-71
2024/01/27 07:47:49;;;;;;;54.17;49.97;;;4.30;99.90;;;;;;5052018;28;20566;-74
2024/01/27 07:50:15;;;;;;;57.87;53.83;;;4.30;99.90;;;;;;5052119;28;20029;-74
2024/01/27 07:52:41;;;;;;;71.80;66.87;;;4.20;99.90;;;;;;5051742;28;20032;-74
2024/01/27 07:55:08;;;;;;;85.87;80.77;;;4.30;99.90;;;;;;5051539;28;20045;-74
2024/01/27 07:57:35;;;;;;;55.30;51.50;;;4.30;99.90;;;;;;5051839;28;20032;-74
2024/01/27 08:00:01;;;;;;;49.43;46.10;;;4.20;99.90;;;;;;5053124;28;20037;-74
2024/01/27 08:02:27;;;;;;;59.70;56.20;;;4.10;99.90;;;;;;5057982;28;20408;-74
2024/01/27 08:04:53;;;;;;;63.67;59.47;;;4.10;99.90;;;;;;5058608;28;20032;-72
2024/01/27 08:07:19;;;;;;;83.37;78.27;;;4.20;99.90;;;;;;5057609;28;20435;-71
2024/01/27 08:09:45;;;;;;;74.23;69.93;;;4.20;99.90;;;;;;5058702;28;20052;-72
2024/01/27 08:12:11;;;;;;;90.57;84.97;;;4.30;99.90;;;;;;5057932;28;20052;-74
2024/01/27 08:14:38;;;;;;;48.80;45.40;;;4.20;99.90;;;;;;5058127;28;20041;-74
2024/01/27 08:17:04;;;;;;;55.87;52.00;;;4.10;99.90;;;;;;5044303;28;20037;-74
2024/01/27 08:19:30;;;;;;;62.87;58.97;;;4.10;99.90;;;;;;5056013;28;20470;-74
2024/01/27 08:21:56;;;;;;;48.43;44.70;;;4.20;99.90;;;;;;5057666;28;20041;-74
2024/01/27 08:24:24;;;;;;;52.10;48.67;;;4.20;99.90;;;;;;5057558;28;20488;-74
2024/01/27 08:26:50;;;;;;;50.53;47.07;;;4.30;99.90;;;;;;5056798;28;20040;-74
2024/01/27 08:29:16;;;;;;;40.37;37.53;;;4.30;99.90;;;;;;5058368;28;20040;-74
2024/01/27 08:31:43;;;;;;;48.43;45.30;;;4.40;99.90;;;;;;5057146;28;20040;-74
2024/01/27 08:34:12;;;;;;;46.87;43.77;;;4.30;99.90;;;;;;5039708;28;20055;-74
2024/01/27 08:36:38;;;;;;;38.77;36.10;;;4.30;99.90;;;;;;5057332;28;20037;-74
2024/01/27 08:39:07;;;;;;;41.63;39.03;;;4.40;99.90;;;;;;5040170;28;20045;-74
2024/01/27 08:41:33;;;;;;;36.77;33.90;;;4.30;99.90;;;;;;5046369;28;20408;-74
2024/01/27 08:43:59;;;;;;;40.27;37.83;;;4.30;99.90;;;;;;5037731;28;20080;-71
2024/01/27 08:46:26;;;;;;;38.50;36.03;;;4.30;99.90;;;;;;5037668;28;20038;-71
2024/01/27 08:48:52;;;;;;;41.83;39.17;;;4.30;99.90;;;;;;5038139;28;20029;-71
2024/01/27 08:51:18;;;;;;;36.17;34.17;;;4.30;99.90;;;;;;5037584;28;20041;-71
2024/01/27 08:53:48;;;;;;;41.13;38.40;;;4.30;99.90;;;;;;5037781;28;20042;-71
2024/01/27 08:56:17;;;;;;;39.05;36.00;;;4.30;99.90;;;;;;5037476;28;20056;-71
2024/01/27 08:58:44;;;;;;;39.50;37.07;;;4.30;99.90;;;;;;5037293;28;20053;-71
2024/01/27 09:01:12;;;;;;;36.83;34.50;;;4.30;99.90;;;;;;5037421;28;20038;-71
2024/01/27 09:03:40;;;;;;;41.10;38.20;;;4.30;99.90;;;;;;5037430;28;20057;-71
2024/01/27 09:06:07;;;;;;;44.30;41.67;;;4.40;99.90;;;;;;5036683;28;20038;-71
2024/01/27 09:08:34;;;;;;;46.67;43.87;;;4.50;99.90;;;;;;5037326;28;20037;-72
2024/01/27 09:11:01;;;;;;;36.43;33.87;;;4.50;99.90;;;;;;5037428;28;20029;-71
2024/01/27 09:13:27;;;;;;;38.60;35.90;;;4.50;99.90;;;;;;5035048;28;20021;-71
2024/01/27 09:15:53;;;;;;;36.03;34.10;;;4.50;99.90;;;;;;5034124;28;20034;-71
2024/01/27 09:18:20;;;;;;;43.73;40.83;;;4.50;99.90;;;;;;5052216;28;20463;-72
2024/01/27 09:20:46;;;;;;;38.93;36.40;;;4.60;99.90;;;;;;5049323;28;20029;-72
2024/01/27 09:23:12;;;;;;;39.10;36.60;;;4.70;99.90;;;;;;5034541;28;20500;-72
2024/01/27 09:25:39;;;;;;;40.67;38.00;;;4.80;99.90;;;;;;5034486;28;20025;-72
2024/01/27 09:28:05;;;;;;;39.00;36.07;;;4.90;99.90;;;;;;5034156;28;20515;-72
2024/01/27 09:30:31;;;;;;;35.63;33.00;;;5.10;99.90;;;;;;5033751;28;20033;-72
2024/01/27 09:32:57;;;;;;;40.43;37.93;;;5.20;99.90;;;;;;5034555;28;20033;-72
2024/01/27 09:35:24;;;;;;;40.90;37.87;;;5.30;99.90;;;;;;5033953;28;20029;-72
2024/01/27 09:37:50;;;;;;;44.70;42.03;;;5.40;99.90;;;;;;5033717;28;20519;-72
2024/01/27 09:40:16;;;;;;;50.53;47.53;;;5.50;99.90;;;;;;5033437;28;20049;-72
2024/01/27 09:42:53;;;;;;;48.50;45.53;;;5.50;99.90;;;;;;5016842;28;20104;-72
2024/01/27 09:45:21;;;;;;;43.00;40.13;;;5.60;99.90;;;;;;5017008;28;20038;-72
2024/01/27 09:47:47;;;;;;;58.30;54.73;;;5.60;99.90;;;;;;5033507;28;20041;-72
2024/01/27 09:50:13;;;;;;;47.87;45.07;;;5.70;99.90;;;;;;5015976;28;20037;-72
2024/01/27 09:52:40;;;;;;;54.10;50.83;;;5.70;99.90;;;;;;5000343;28;20479;-72
2024/01/27 09:55:06;;;;;;;49.83;46.50;;;5.80;99.90;;;;;;5034100;28;20037;-72
2024/01/27 09:57:32;;;;;;;48.17;45.07;;;5.80;99.90;;;;;;5033772;28;20038;-73
2024/01/27 09:59:58;;;;;;;46.77;43.50;;;5.90;99.90;;;;;;5000210;28;20029;-72
2024/01/27 10:02:24;;;;;;;64.27;60.30;;;6.00;99.90;;;;;;5015128;28;20500;-72
2024/01/27 10:04:50;;;;;;;68.00;63.83;;;6.10;99.90;;;;;;5033672;28;20498;-72
2024/01/27 10:07:16;;;;;;;60.03;56.43;;;6.20;99.90;;;;;;5016271;28;20041;-72
2024/01/27 10:09:43;;;;;;;60.20;56.60;;;6.30;99.90;;;;;;5053684;28;20048;-72
2024/01/27 10:12:09;;;;;;;52.33;49.20;;;6.40;99.90;;;;;;5053495;28;20025;-72
2024/01/27 10:14:39;;;;;;;59.97;56.57;;;6.40;99.90;;;;;;5053125;28;20411;-72
2024/01/27 10:17:05;;;;;;;55.40;51.67;;;6.40;99.90;;;;;;5034413;28;20048;-72
2024/01/27 10:19:32;;;;;;;52.90;49.00;;;6.50;99.90;;;;;;5034602;28;20028;-72
2024/01/27 10:22:04;;;;;;;80.93;75.83;;;6.60;99.90;;;;;;5038546;28;20472;-72
2024/01/27 10:24:35;;;;;;;104.47;98.43;;;6.70;99.90;;;;;;5032369;28;20485;-72
2024/01/27 10:27:02;;;;;;;77.65;72.78;;;6.70;99.90;;;;;;5033284;28;20022;-72
2024/01/27 10:29:28;;;;;;;41.77;38.83;;;6.80;99.90;;;;;;5033514;28;20037;-72
2024/01/27 10:31:54;;;;;;;44.07;41.30;;;6.80;99.90;;;;;;5015085;28;20041;-72
2024/01/27 10:34:20;;;;;;;48.17;45.27;;;6.90;99.90;;;;;;5033090;28;20388;-72
2024/01/27 10:36:46;;;;;;;45.93;42.73;;;7.00;99.90;;;;;;5032896;28;20526;-72
2024/01/27 10:39:20;;;;;;;46.93;43.83;;;7.10;99.90;;;;;;5033250;28;20025;-72
2024/01/27 10:41:47;;;;;;;49.25;45.95;;;7.10;99.90;;;;;;5033046;28;20056;-72
2024/01/27 10:44:17;;;;;;;52.80;49.40;;;7.20;99.90;;;;;;5015215;28;20045;-72
2024/01/27 10:46:45;;;;;;;107.65;101.70;;;7.30;99.90;;;;;;5031924;28;20033;-72
2024/01/27 10:49:12;;;;;;;48.75;45.15;;;7.30;99.90;;;;;;5033305;28;20033;-72
2024/01/27 10:51:38;;;;;;;48.30;45.03;;;7.30;99.90;;;;;;5015470;28;20033;-72
2024/01/27 10:54:07;;;;;;;52.65;49.28;;;7.40;99.90;;;;;;4999294;28;20022;-73
2024/01/27 10:56:33;;;;;;;54.25;50.72;;;7.40;99.90;;;;;;5010462;28;20041;-72
2024/01/27 10:58:59;;;;;;;54.77;51.00;;;7.60;99.90;;;;;;5034452;28;20040;-72
2024/01/27 11:01:26;;;;;;;51.65;48.25;;;7.60;99.90;;;;;;5051760;28;20415;-72
2024/01/27 11:03:52;;;;;;;54.85;51.25;;;7.70;99.90;;;;;;5018043;28;20499;-74
2024/01/27 11:06:19;;;;;;;264.70;250.35;;;7.80;99.90;;;;;;5017970;28;20036;-72
2024/01/27 11:08:45;;;;;;;253.73;239.77;;;7.90;99.90;;;;;;5034640;28;20056;-73
2024/01/27 11:11:11;;;;;;;245.07;231.45;;;7.90;99.90;;;;;;5026082;28;20040;-72
2024/01/27 11:13:38;;;;;;;222.00;209.55;;;8.00;99.90;;;;;;5032154;28;20049;-72
2024/01/27 11:16:04;;;;;;;276.23;261.42;;;8.10;99.90;;;;;;5005203;28;20037;-72
2024/01/27 11:18:30;;;;;;;180.95;171.00;;;8.10;99.90;;;;;;5052133;28;20059;-72
2024/01/27 11:20:57;;;;;;;205.07;193.55;;;8.20;99.90;;;;;;5045692;28;20033;-72
2024/01/27 11:23:34;;;;;;;185.65;175.48;;;8.10;99.90;;;;;;5032554;28;20033;-72
2024/01/27 11:26:07;;;;;;;125.50;118.50;;;8.10;99.90;;;;;;5032248;28;20380;-72
2024/01/27 11:28:33;;;;;;;69.28;65.90;;;8.10;99.90;;;;;;5014748;28;20025;-72
2024/01/27 11:31:03;;;;;;;102.13;96.20;;;8.10;99.90;;;;;;5031270;28;20037;-72
2024/01/27 11:33:29;;;;;;;108.45;102.55;;;8.00;99.90;;;;;;5014942;28;20036;-72
2024/01/27 11:36:03;;;;;;;108.07;101.95;;;8.10;99.90;;;;;;5031266;28;20033;-73
2024/01/27 11:38:30;;;;;;;103.70;98.13;;;8.20;99.90;;;;;;5032148;28;20034;-74
2024/01/27 11:40:56;;;;;;;103.20;97.47;;;8.30;99.90;;;;;;5014410;28;20487;-71
2024/01/27 11:43:22;;;;;;;104.60;98.57;;;8.30;99.90;;;;;;5031542;28;20041;-72
2024/01/27 11:45:58;;;;;;;107.65;101.53;;;8.40;99.90;;;;;;5013410;28;20037;-72
2024/01/27 11:48:25;;;;;;;72.55;68.30;;;8.50;99.90;;;;;;5031996;28;20041;-72
2024/01/27 11:51:07;;;;;;;90.35;85.25;;;8.50;99.90;;;;;;5031592;28;20512;-72
2024/01/27 11:53:34;;;;;;;115.38;109.13;;;8.60;99.90;;;;;;5014358;28;20384;-72
2024/01/27 11:56:01;;;;;;;110.15;103.97;;;8.80;99.90;;;;;;5031731;28;20029;-72
2024/01/27 11:58:28;;;;;;;95.25;90.22;;;8.90;99.90;;;;;;5031917;28;20045;-72
2024/01/27 12:00:54;;;;;;;1529.57;777.88;;;8.90;99.90;;;;;;5030610;28;20048;-74
2024/01/27 12:03:20;;;;;;;76.57;71.90;;;9.00;99.90;;;;;;5031309;28;20049;-72
2024/01/27 12:05:46;;;;;;;85.47;80.80;;;9.00;99.90;;;;;;5031728;28;20029;-72
2024/01/27 12:08:12;;;;;;;1999.90;999.90;;;9.10;99.90;;;;;;5031893;28;20038;-71
2024/01/27 12:10:38;;;;;;;1999.90;999.90;;;9.20;99.90;;;;;;5030925;28;20049;-74
2024/01/27 12:13:04;;;;;;;1999.90;999.90;;;9.10;99.90;;;;;;5013820;28;20041;-72
2024/01/27 12:15:30;;;;;;;1999.90;999.90;;;9.30;99.90;;;;;;4996971;28;20041;-72
2024/01/27 12:17:57;;;;;;;558.38;305.33;;;9.40;99.90;;;;;;5045987;28;20028;-72
2024/01/27 12:20:23;;;;;;;1999.90;999.90;;;9.40;99.90;;;;;;5049635;28;20029;-72
2024/01/27 12:22:50;;;;;;;1999.90;999.90;;;9.40;99.90;;;;;;4997526;28;20045;-72
2024/01/27 12:25:17;;;;;;;1999.90;999.90;;;9.30;99.90;;;;;;5031158;28;20057;-72
2024/01/27 12:27:43;;;;;;;1999.90;999.90;;;9.40;99.90;;;;;;5031102;28;20037;-72